sensor_id;sensor_type;location;lat;lon;timestamp;P1;durP1;ratioP1;P2;durP2;ratioP2
11681;SDS011;5897;42.640;23.310;2023-04-24T00:01:48;9.32;;;7.97;;
11681;SDS011;5897;42.640;23.310;2023-04-24T00:04:16;12.43;;;8.25;;
11681;SDS011;5897;42.640;23.310;2023-04-24T00:06:43;10.90;;;8.45;;
11681;SDS011;5897;42.640;23.310;2023-04-24T00:09:14;11.20;;;8.40;;
11681;SDS011;5897;42.640;23.310;2023-04-24T00:11:41;10.07;;;7.90;;
11681;SDS011;5897;42.640;23.310;2023-04-24T00:14:08;8.30;;;7.50;;
11681;SDS011;5897;42.640;23.310;2023-04-24T00:16:35;10.45;;;7.85;;
11681;SDS011;5897;42.640;23.310;2023-04-24T00:19:02;10.45;;;8.00;;
11681;SDS011;5897;42.640;23.310;2023-04-24T00:21:32;10.20;;;7.80;;
11681;SDS011;5897;42.640;23.310;2023-04-24T00:23:59;9.85;;;8.60;;
11681;SDS011;5897;42.640;23.310;2023-04-24T00:26:25;15.63;;;9.10;;
11681;SDS011;5897;42.640;23.310;2023-04-24T00:28:52;9.75;;;8.07;;
11681;SDS011;5897;42.640;23.310;2023-04-24T00:31:19;8.88;;;7.70;;
11681;SDS011;5897;42.640;23.310;2023-04-24T00:33:46;11.55;;;7.93;;
11681;SDS011;5897;42.640;23.310;2023-04-24T00:36:12;9.32;;;7.72;;
11681;SDS011;5897;42.640;23.310;2023-04-24T00:38:41;9.18;;;7.80;;
11681;SDS011;5897;42.640;23.310;2023-04-24T00:41:07;9.25;;;7.47;;
11681;SDS011;5897;42.640;23.310;2023-04-24T00:43:34;9.95;;;7.65;;
11681;SDS011;5897;42.640;23.310;2023-04-24T00:46:01;10.43;;;7.50;;
11681;SDS011;5897;42.640;23.310;2023-04-24T00:48:28;9.82;;;6.85;;
11681;SDS011;5897;42.640;23.310;2023-04-24T00:50:55;10.68;;;7.00;;
11681;SDS011;5897;42.640;23.310;2023-04-24T00:53:23;12.07;;;7.15;;
11681;SDS011;5897;42.640;23.310;2023-04-24T00:55:51;8.93;;;6.40;;
11681;SDS011;5897;42.640;23.310;2023-04-24T00:58:18;10.25;;;6.85;;
11681;SDS011;5897;42.640;23.310;2023-04-24T01:00:46;8.90;;;6.50;;
11681;SDS011;5897;42.640;23.310;2023-04-24T01:03:15;8.63;;;6.70;;
11681;SDS011;5897;42.640;23.310;2023-04-24T01:05:43;7.43;;;6.55;;
11681;SDS011;5897;42.640;23.310;2023-04-24T01:08:10;7.88;;;6.47;;
11681;SDS011;5897;42.640;23.310;2023-04-24T01:10:37;9.02;;;6.90;;
11681;SDS011;5897;42.640;23.310;2023-04-24T01:13:08;8.27;;;6.35;;
11681;SDS011;5897;42.640;23.310;2023-04-24T01:15:35;8.18;;;6.90;;
11681;SDS011;5897;42.640;23.310;2023-04-24T01:18:01;9.35;;;6.95;;
11681;SDS011;5897;42.640;23.310;2023-04-24T01:20:28;8.38;;;7.03;;
11681;SDS011;5897;42.640;23.310;2023-04-24T01:22:58;10.93;;;7.93;;
11681;SDS011;5897;42.640;23.310;2023-04-24T01:25:25;11.70;;;8.63;;
11681;SDS011;5897;42.640;23.310;2023-04-24T01:27:54;12.10;;;8.25;;
11681;SDS011;5897;42.640;23.310;2023-04-24T01:30:21;12.30;;;8.60;;
11681;SDS011;5897;42.640;23.310;2023-04-24T01:32:47;9.50;;;8.48;;
11681;SDS011;5897;42.640;23.310;2023-04-24T01:35:14;9.23;;;8.32;;
11681;SDS011;5897;42.640;23.310;2023-04-24T01:37:41;9.18;;;8.27;;
11681;SDS011;5897;42.640;23.310;2023-04-24T01:40:10;10.15;;;8.60;;
11681;SDS011;5897;42.640;23.310;2023-04-24T01:42:37;11.25;;;9.43;;
11681;SDS011;5897;42.640;23.310;2023-04-24T01:45:04;10.50;;;9.10;;
11681;SDS011;5897;42.640;23.310;2023-04-24T01:47:32;11.73;;;9.07;;
11681;SDS011;5897;42.640;23.310;2023-04-24T01:49:59;10.48;;;9.43;;
11681;SDS011;5897;42.640;23.310;2023-04-24T01:52:25;10.80;;;9.30;;
11681;SDS011;5897;42.640;23.310;2023-04-24T01:54:54;12.95;;;9.20;;
11681;SDS011;5897;42.640;23.310;2023-04-24T01:57:22;10.45;;;9.02;;
11681;SDS011;5897;42.640;23.310;2023-04-24T01:59:49;9.88;;;8.77;;
11681;SDS011;5897;42.640;23.310;2023-04-24T02:02:17;10.73;;;9.18;;
11681;SDS011;5897;42.640;23.310;2023-04-24T02:04:46;9.82;;;8.82;;
11681;SDS011;5897;42.640;23.310;2023-04-24T02:07:13;11.02;;;9.48;;
11681;SDS011;5897;42.640;23.310;2023-04-24T02:09:39;10.25;;;8.63;;
11681;SDS011;5897;42.640;23.310;2023-04-24T02:12:06;9.02;;;8.13;;
11681;SDS011;5897;42.640;23.310;2023-04-24T02:14:34;10.52;;;8.45;;
11681;SDS011;5897;42.640;23.310;2023-04-24T02:17:01;11.95;;;10.07;;
11681;SDS011;5897;42.640;23.310;2023-04-24T02:19:28;11.70;;;9.57;;
11681;SDS011;5897;42.640;23.310;2023-04-24T02:21:55;12.93;;;8.70;;
11681;SDS011;5897;42.640;23.310;2023-04-24T02:24:21;10.30;;;8.98;;
11681;SDS011;5897;42.640;23.310;2023-04-24T02:26:48;11.02;;;9.10;;
11681;SDS011;5897;42.640;23.310;2023-04-24T02:29:15;12.35;;;9.52;;
11681;SDS011;5897;42.640;23.310;2023-04-24T02:31:43;9.95;;;8.95;;
11681;SDS011;5897;42.640;23.310;2023-04-24T02:34:10;10.00;;;8.63;;
11681;SDS011;5897;42.640;23.310;2023-04-24T02:36:36;10.25;;;8.10;;
11681;SDS011;5897;42.640;23.310;2023-04-24T02:39:03;10.95;;;8.38;;
11681;SDS011;5897;42.640;23.310;2023-04-24T02:41:30;9.10;;;8.20;;
11681;SDS011;5897;42.640;23.310;2023-04-24T02:43:57;11.65;;;9.07;;
11681;SDS011;5897;42.640;23.310;2023-04-24T02:46:24;8.73;;;7.55;;
11681;SDS011;5897;42.640;23.310;2023-04-24T02:48:52;11.65;;;7.40;;
11681;SDS011;5897;42.640;23.310;2023-04-24T02:51:19;8.52;;;7.05;;
11681;SDS011;5897;42.640;23.310;2023-04-24T02:53:46;7.47;;;6.65;;
11681;SDS011;5897;42.640;23.310;2023-04-24T02:56:13;9.30;;;7.18;;
11681;SDS011;5897;42.640;23.310;2023-04-24T02:58:39;8.88;;;7.25;;
11681;SDS011;5897;42.640;23.310;2023-04-24T03:01:07;8.40;;;7.15;;
11681;SDS011;5897;42.640;23.310;2023-04-24T03:03:34;9.65;;;7.72;;
11681;SDS011;5897;42.640;23.310;2023-04-24T03:06:03;9.38;;;7.28;;
11681;SDS011;5897;42.640;23.310;2023-04-24T03:08:30;9.40;;;6.95;;
11681;SDS011;5897;42.640;23.310;2023-04-24T03:10:57;8.30;;;7.40;;
11681;SDS011;5897;42.640;23.310;2023-04-24T03:13:24;8.07;;;7.28;;
11681;SDS011;5897;42.640;23.310;2023-04-24T03:15:51;12.77;;;7.43;;
11681;SDS011;5897;42.640;23.310;2023-04-24T03:18:18;9.10;;;6.97;;
11681;SDS011;5897;42.640;23.310;2023-04-24T03:20:45;8.07;;;7.28;;
11681;SDS011;5897;42.640;23.310;2023-04-24T03:23:14;7.45;;;6.75;;
11681;SDS011;5897;42.640;23.310;2023-04-24T03:25:40;10.88;;;7.20;;
11681;SDS011;5897;42.640;23.310;2023-04-24T03:28:07;8.98;;;7.32;;
11681;SDS011;5897;42.640;23.310;2023-04-24T03:30:34;9.18;;;7.28;;
11681;SDS011;5897;42.640;23.310;2023-04-24T03:33:01;7.40;;;6.55;;
11681;SDS011;5897;42.640;23.310;2023-04-24T03:35:28;8.88;;;7.45;;
11681;SDS011;5897;42.640;23.310;2023-04-24T03:37:55;9.55;;;7.78;;
11681;SDS011;5897;42.640;23.310;2023-04-24T03:40:23;9.38;;;7.07;;
11681;SDS011;5897;42.640;23.310;2023-04-24T03:42:50;8.25;;;7.05;;
11681;SDS011;5897;42.640;23.310;2023-04-24T03:45:16;7.72;;;6.75;;
11681;SDS011;5897;42.640;23.310;2023-04-24T03:47:43;9.93;;;7.50;;
11681;SDS011;5897;42.640;23.310;2023-04-24T03:50:10;10.93;;;7.30;;
11681;SDS011;5897;42.640;23.310;2023-04-24T03:52:37;8.57;;;7.68;;
11681;SDS011;5897;42.640;23.310;2023-04-24T03:55:04;8.55;;;7.43;;
11681;SDS011;5897;42.640;23.310;2023-04-24T03:57:33;7.97;;;6.93;;
11681;SDS011;5897;42.640;23.310;2023-04-24T03:59:59;8.65;;;7.25;;
11681;SDS011;5897;42.640;23.310;2023-04-24T04:02:29;7.82;;;6.88;;
11681;SDS011;5897;42.640;23.310;2023-04-24T04:04:55;9.27;;;6.55;;
11681;SDS011;5897;42.640;23.310;2023-04-24T04:07:22;8.35;;;6.90;;
11681;SDS011;5897;42.640;23.310;2023-04-24T04:09:49;9.98;;;7.22;;
11681;SDS011;5897;42.640;23.310;2023-04-24T04:12:16;9.60;;;7.45;;
11681;SDS011;5897;42.640;23.310;2023-04-24T04:14:44;9.02;;;7.00;;
11681;SDS011;5897;42.640;23.310;2023-04-24T04:17:11;15.43;;;7.70;;
11681;SDS011;5897;42.640;23.310;2023-04-24T04:19:38;8.77;;;6.35;;
11681;SDS011;5897;42.640;23.310;2023-04-24T04:22:04;8.05;;;6.60;;
11681;SDS011;5897;42.640;23.310;2023-04-24T04:24:33;9.45;;;7.50;;
11681;SDS011;5897;42.640;23.310;2023-04-24T04:27:02;10.32;;;6.13;;
11681;SDS011;5897;42.640;23.310;2023-04-24T04:29:29;9.73;;;6.68;;
11681;SDS011;5897;42.640;23.310;2023-04-24T04:32:02;15.80;;;8.15;;
11681;SDS011;5897;42.640;23.310;2023-04-24T04:34:29;13.23;;;7.13;;
11681;SDS011;5897;42.640;23.310;2023-04-24T04:36:56;13.02;;;7.40;;
11681;SDS011;5897;42.640;23.310;2023-04-24T04:39:26;11.43;;;7.45;;
11681;SDS011;5897;42.640;23.310;2023-04-24T04:41:53;9.23;;;6.63;;
11681;SDS011;5897;42.640;23.310;2023-04-24T04:44:20;10.30;;;6.78;;
11681;SDS011;5897;42.640;23.310;2023-04-24T04:46:47;9.73;;;7.78;;
11681;SDS011;5897;42.640;23.310;2023-04-24T04:49:15;11.82;;;7.90;;
11681;SDS011;5897;42.640;23.310;2023-04-24T04:51:42;10.40;;;7.72;;
11681;SDS011;5897;42.640;23.310;2023-04-24T04:54:09;12.27;;;8.07;;
11681;SDS011;5897;42.640;23.310;2023-04-24T04:56:36;13.25;;;8.25;;
11681;SDS011;5897;42.640;23.310;2023-04-24T04:59:03;13.18;;;8.07;;
11681;SDS011;5897;42.640;23.310;2023-04-24T05:01:31;10.63;;;7.90;;
11681;SDS011;5897;42.640;23.310;2023-04-24T05:03:58;9.02;;;7.45;;
11681;SDS011;5897;42.640;23.310;2023-04-24T05:06:26;11.43;;;7.93;;
11681;SDS011;5897;42.640;23.310;2023-04-24T05:08:53;11.18;;;7.53;;
11681;SDS011;5897;42.640;23.310;2023-04-24T05:11:22;9.05;;;7.05;;
11681;SDS011;5897;42.640;23.310;2023-04-24T05:13:49;22.00;;;8.02;;
11681;SDS011;5897;42.640;23.310;2023-04-24T05:16:15;18.48;;;8.38;;
11681;SDS011;5897;42.640;23.310;2023-04-24T05:18:42;9.10;;;7.43;;
11681;SDS011;5897;42.640;23.310;2023-04-24T05:21:09;11.95;;;7.63;;
11681;SDS011;5897;42.640;23.310;2023-04-24T05:23:37;13.63;;;7.90;;
11681;SDS011;5897;42.640;23.310;2023-04-24T05:26:04;11.93;;;7.53;;
11681;SDS011;5897;42.640;23.310;2023-04-24T05:28:31;11.50;;;8.27;;
11681;SDS011;5897;42.640;23.310;2023-04-24T05:30:58;15.57;;;8.55;;
11681;SDS011;5897;42.640;23.310;2023-04-24T05:33:26;14.18;;;8.38;;
11681;SDS011;5897;42.640;23.310;2023-04-24T05:35:52;12.35;;;7.88;;
11681;SDS011;5897;42.640;23.310;2023-04-24T05:38:19;11.57;;;8.57;;
11681;SDS011;5897;42.640;23.310;2023-04-24T05:40:47;17.23;;;8.30;;
11681;SDS011;5897;42.640;23.310;2023-04-24T05:43:14;11.45;;;8.32;;
11681;SDS011;5897;42.640;23.310;2023-04-24T05:45:41;12.65;;;8.13;;
11681;SDS011;5897;42.640;23.310;2023-04-24T05:48:08;12.07;;;8.20;;
11681;SDS011;5897;42.640;23.310;2023-04-24T05:50:34;13.43;;;8.35;;
11681;SDS011;5897;42.640;23.310;2023-04-24T05:53:01;13.57;;;7.97;;
11681;SDS011;5897;42.640;23.310;2023-04-24T05:55:28;9.48;;;7.65;;
11681;SDS011;5897;42.640;23.310;2023-04-24T05:57:56;13.95;;;9.02;;
11681;SDS011;5897;42.640;23.310;2023-04-24T06:00:23;10.38;;;7.65;;
11681;SDS011;5897;42.640;23.310;2023-04-24T06:02:50;15.10;;;8.32;;
11681;SDS011;5897;42.640;23.310;2023-04-24T06:05:17;12.00;;;8.18;;
11681;SDS011;5897;42.640;23.310;2023-04-24T06:07:44;12.02;;;7.22;;
11681;SDS011;5897;42.640;23.310;2023-04-24T06:10:11;10.43;;;7.38;;
11681;SDS011;5897;42.640;23.310;2023-04-24T06:12:38;10.38;;;7.50;;
11681;SDS011;5897;42.640;23.310;2023-04-24T06:15:07;10.27;;;7.25;;
11681;SDS011;5897;42.640;23.310;2023-04-24T06:17:34;11.07;;;8.30;;
11681;SDS011;5897;42.640;23.310;2023-04-24T06:20:01;12.38;;;7.82;;
11681;SDS011;5897;42.640;23.310;2023-04-24T06:22:29;10.63;;;7.85;;
11681;SDS011;5897;42.640;23.310;2023-04-24T06:24:56;10.32;;;7.32;;
11681;SDS011;5897;42.640;23.310;2023-04-24T06:27:23;10.52;;;7.50;;
11681;SDS011;5897;42.640;23.310;2023-04-24T06:29:50;11.77;;;7.10;;
11681;SDS011;5897;42.640;23.310;2023-04-24T06:32:21;13.73;;;8.27;;
11681;SDS011;5897;42.640;23.310;2023-04-24T06:34:48;11.20;;;7.53;;
11681;SDS011;5897;42.640;23.310;2023-04-24T06:37:17;10.70;;;7.68;;
11681;SDS011;5897;42.640;23.310;2023-04-24T06:39:45;12.18;;;7.88;;
11681;SDS011;5897;42.640;23.310;2023-04-24T06:42:12;13.57;;;7.70;;
11681;SDS011;5897;42.640;23.310;2023-04-24T06:44:39;18.67;;;9.48;;
11681;SDS011;5897;42.640;23.310;2023-04-24T06:47:07;13.32;;;9.45;;
11681;SDS011;5897;42.640;23.310;2023-04-24T06:49:36;13.95;;;8.10;;
11681;SDS011;5897;42.640;23.310;2023-04-24T06:52:03;12.73;;;8.20;;
11681;SDS011;5897;42.640;23.310;2023-04-24T06:54:30;10.50;;;6.90;;
11681;SDS011;5897;42.640;23.310;2023-04-24T06:56:58;7.18;;;6.28;;
11681;SDS011;5897;42.640;23.310;2023-04-24T06:59:25;13.50;;;6.70;;
11681;SDS011;5897;42.640;23.310;2023-04-24T07:01:52;7.75;;;6.20;;
11681;SDS011;5897;42.640;23.310;2023-04-24T07:04:19;8.00;;;6.00;;
11681;SDS011;5897;42.640;23.310;2023-04-24T07:06:48;9.15;;;6.22;;
11681;SDS011;5897;42.640;23.310;2023-04-24T07:09:16;9.27;;;5.75;;
11681;SDS011;5897;42.640;23.310;2023-04-24T07:11:43;9.10;;;5.50;;
11681;SDS011;5897;42.640;23.310;2023-04-24T07:14:10;9.60;;;6.13;;
11681;SDS011;5897;42.640;23.310;2023-04-24T07:16:37;13.13;;;6.63;;
11681;SDS011;5897;42.640;23.310;2023-04-24T07:19:04;10.68;;;5.88;;
11681;SDS011;5897;42.640;23.310;2023-04-24T07:21:30;8.70;;;5.70;;
11681;SDS011;5897;42.640;23.310;2023-04-24T07:23:59;8.38;;;5.53;;
11681;SDS011;5897;42.640;23.310;2023-04-24T07:26:26;8.77;;;5.50;;
11681;SDS011;5897;42.640;23.310;2023-04-24T07:28:53;11.07;;;7.40;;
11681;SDS011;5897;42.640;23.310;2023-04-24T07:31:20;7.28;;;5.60;;
11681;SDS011;5897;42.640;23.310;2023-04-24T07:33:47;5.97;;;5.13;;
11681;SDS011;5897;42.640;23.310;2023-04-24T07:36:13;7.22;;;6.50;;
11681;SDS011;5897;42.640;23.310;2023-04-24T07:38:44;7.18;;;5.68;;
11681;SDS011;5897;42.640;23.310;2023-04-24T07:41:12;9.85;;;5.00;;
11681;SDS011;5897;42.640;23.310;2023-04-24T07:43:39;7.15;;;4.90;;
11681;SDS011;5897;42.640;23.310;2023-04-24T07:46:06;9.65;;;5.68;;
11681;SDS011;5897;42.640;23.310;2023-04-24T07:48:33;5.95;;;5.20;;
11681;SDS011;5897;42.640;23.310;2023-04-24T07:51:00;7.03;;;5.30;;
11681;SDS011;5897;42.640;23.310;2023-04-24T07:53:27;10.40;;;6.18;;
11681;SDS011;5897;42.640;23.310;2023-04-24T07:55:54;7.60;;;5.65;;
11681;SDS011;5897;42.640;23.310;2023-04-24T07:58:22;8.52;;;5.57;;
11681;SDS011;5897;42.640;23.310;2023-04-24T08:00:49;11.25;;;5.72;;
11681;SDS011;5897;42.640;23.310;2023-04-24T08:03:16;8.07;;;5.30;;
11681;SDS011;5897;42.640;23.310;2023-04-24T08:05:44;10.52;;;5.57;;
11681;SDS011;5897;42.640;23.310;2023-04-24T08:08:11;7.90;;;5.03;;
11681;SDS011;5897;42.640;23.310;2023-04-24T08:10:38;8.02;;;5.40;;
11681;SDS011;5897;42.640;23.310;2023-04-24T08:13:05;6.22;;;5.60;;
11681;SDS011;5897;42.640;23.310;2023-04-24T08:15:33;7.22;;;5.50;;
11681;SDS011;5897;42.640;23.310;2023-04-24T08:17:59;8.55;;;5.18;;
11681;SDS011;5897;42.640;23.310;2023-04-24T08:20:26;7.45;;;5.05;;
11681;SDS011;5897;42.640;23.310;2023-04-24T08:22:53;6.72;;;5.47;;
11681;SDS011;5897;42.640;23.310;2023-04-24T08:25:20;7.20;;;5.20;;
11681;SDS011;5897;42.640;23.310;2023-04-24T08:27:48;8.38;;;5.97;;
11681;SDS011;5897;42.640;23.310;2023-04-24T08:30:14;7.88;;;5.43;;
11681;SDS011;5897;42.640;23.310;2023-04-24T08:32:43;10.02;;;5.95;;
11681;SDS011;5897;42.640;23.310;2023-04-24T08:35:09;6.07;;;5.45;;
11681;SDS011;5897;42.640;23.310;2023-04-24T08:37:36;8.30;;;5.93;;
11681;SDS011;5897;42.640;23.310;2023-04-24T08:40:05;9.65;;;5.82;;
11681;SDS011;5897;42.640;23.310;2023-04-24T08:42:37;6.30;;;5.70;;
11681;SDS011;5897;42.640;23.310;2023-04-24T08:45:05;7.22;;;6.07;;
11681;SDS011;5897;42.640;23.310;2023-04-24T08:47:33;7.38;;;6.22;;
11681;SDS011;5897;42.640;23.310;2023-04-24T08:50:03;9.18;;;6.82;;
11681;SDS011;5897;42.640;23.310;2023-04-24T08:52:31;8.95;;;5.72;;
11681;SDS011;5897;42.640;23.310;2023-04-24T08:54:59;12.77;;;11.48;;
11681;SDS011;5897;42.640;23.310;2023-04-24T08:57:27;7.57;;;5.65;;
11681;SDS011;5897;42.640;23.310;2023-04-24T08:59:54;8.45;;;5.57;;
11681;SDS011;5897;42.640;23.310;2023-04-24T09:02:23;10.20;;;6.05;;
11681;SDS011;5897;42.640;23.310;2023-04-24T09:04:50;8.30;;;5.53;;
11681;SDS011;5897;42.640;23.310;2023-04-24T09:07:20;12.27;;;6.20;;
11681;SDS011;5897;42.640;23.310;2023-04-24T09:09:48;9.77;;;5.70;;
11681;SDS011;5897;42.640;23.310;2023-04-24T09:12:17;9.57;;;6.15;;
11681;SDS011;5897;42.640;23.310;2023-04-24T09:14:44;9.15;;;5.63;;
11681;SDS011;5897;42.640;23.310;2023-04-24T09:17:11;9.38;;;5.40;;
11681;SDS011;5897;42.640;23.310;2023-04-24T09:19:38;11.55;;;5.20;;
11681;SDS011;5897;42.640;23.310;2023-04-24T09:22:06;11.60;;;5.50;;
11681;SDS011;5897;42.640;23.310;2023-04-24T09:24:35;9.95;;;5.40;;
11681;SDS011;5897;42.640;23.310;2023-04-24T09:27:01;10.73;;;5.72;;
11681;SDS011;5897;42.640;23.310;2023-04-24T09:29:29;10.65;;;5.20;;
11681;SDS011;5897;42.640;23.310;2023-04-24T09:31:57;7.70;;;5.13;;
11681;SDS011;5897;42.640;23.310;2023-04-24T09:34:25;12.57;;;5.25;;
11681;SDS011;5897;42.640;23.310;2023-04-24T09:36:53;8.75;;;4.88;;
11681;SDS011;5897;42.640;23.310;2023-04-24T09:39:20;9.38;;;5.28;;
11681;SDS011;5897;42.640;23.310;2023-04-24T09:41:48;8.05;;;5.30;;
11681;SDS011;5897;42.640;23.310;2023-04-24T09:44:16;6.18;;;4.70;;
11681;SDS011;5897;42.640;23.310;2023-04-24T09:46:49;7.78;;;4.88;;
11681;SDS011;5897;42.640;23.310;2023-04-24T09:49:21;7.78;;;4.78;;
11681;SDS011;5897;42.640;23.310;2023-04-24T09:51:49;7.47;;;4.60;;
11681;SDS011;5897;42.640;23.310;2023-04-24T09:54:16;9.40;;;5.13;;
11681;SDS011;5897;42.640;23.310;2023-04-24T09:56:45;6.60;;;4.53;;
11681;SDS011;5897;42.640;23.310;2023-04-24T09:59:15;7.57;;;4.93;;
11681;SDS011;5897;42.640;23.310;2023-04-24T10:01:44;8.48;;;4.22;;
11681;SDS011;5897;42.640;23.310;2023-04-24T10:04:17;8.00;;;4.22;;
11681;SDS011;5897;42.640;23.310;2023-04-24T10:06:45;9.10;;;4.47;;
11681;SDS011;5897;42.640;23.310;2023-04-24T10:09:13;5.68;;;3.83;;
11681;SDS011;5897;42.640;23.310;2023-04-24T10:11:41;6.47;;;4.35;;
11681;SDS011;5897;42.640;23.310;2023-04-24T10:14:10;6.00;;;3.88;;
11681;SDS011;5897;42.640;23.310;2023-04-24T10:16:41;6.03;;;4.07;;
11681;SDS011;5897;42.640;23.310;2023-04-24T10:19:08;8.35;;;4.43;;
11681;SDS011;5897;42.640;23.310;2023-04-24T10:21:35;4.70;;;3.95;;
11681;SDS011;5897;42.640;23.310;2023-04-24T10:24:07;7.03;;;4.25;;
11681;SDS011;5897;42.640;23.310;2023-04-24T10:26:34;6.32;;;4.00;;
11681;SDS011;5897;42.640;23.310;2023-04-24T10:29:01;7.95;;;3.78;;
11681;SDS011;5897;42.640;23.310;2023-04-24T10:31:31;6.90;;;3.58;;
11681;SDS011;5897;42.640;23.310;2023-04-24T10:34:00;5.35;;;3.63;;
11681;SDS011;5897;42.640;23.310;2023-04-24T10:36:28;4.65;;;3.90;;
11681;SDS011;5897;42.640;23.310;2023-04-24T10:38:58;5.53;;;3.97;;
11681;SDS011;5897;42.640;23.310;2023-04-24T10:41:27;7.35;;;3.90;;
11681;SDS011;5897;42.640;23.310;2023-04-24T10:44:05;5.78;;;4.05;;
11681;SDS011;5897;42.640;23.310;2023-04-24T10:46:32;3.67;;;3.15;;
11681;SDS011;5897;42.640;23.310;2023-04-24T10:49:01;6.22;;;3.50;;
11681;SDS011;5897;42.640;23.310;2023-04-24T10:54:23;6.43;;;3.40;;
11681;SDS011;5897;42.640;23.310;2023-04-24T10:56:52;4.00;;;3.22;;
11681;SDS011;5897;42.640;23.310;2023-04-24T10:59:24;3.85;;;3.30;;
11681;SDS011;5897;42.640;23.310;2023-04-24T11:01:52;3.67;;;2.97;;
11681;SDS011;5897;42.640;23.310;2023-04-24T11:04:30;6.82;;;3.00;;
11681;SDS011;5897;42.640;23.310;2023-04-24T11:07:00;5.10;;;3.25;;
11681;SDS011;5897;42.640;23.310;2023-04-24T11:09:27;6.10;;;3.67;;
11681;SDS011;5897;42.640;23.310;2023-04-24T11:12:02;7.22;;;3.10;;
11681;SDS011;5897;42.640;23.310;2023-04-24T11:17:28;5.95;;;2.90;;
11681;SDS011;5897;42.640;23.310;2023-04-24T11:20:01;4.90;;;2.90;;
11681;SDS011;5897;42.640;23.310;2023-04-24T11:22:29;6.13;;;3.00;;
11681;SDS011;5897;42.640;23.310;2023-04-24T11:25:00;5.00;;;3.05;;
11681;SDS011;5897;42.640;23.310;2023-04-24T11:27:29;3.55;;;2.80;;
11681;SDS011;5897;42.640;23.310;2023-04-24T11:30:00;2.95;;;2.33;;
11681;SDS011;5897;42.640;23.310;2023-04-24T11:32:29;2.15;;;1.80;;
11681;SDS011;5897;42.640;23.310;2023-04-24T11:35:02;4.25;;;2.30;;
11681;SDS011;5897;42.640;23.310;2023-04-24T11:37:33;2.35;;;2.15;;
11681;SDS011;5897;42.640;23.310;2023-04-24T11:40:01;2.78;;;2.55;;
11681;SDS011;5897;42.640;23.310;2023-04-24T11:42:33;4.50;;;2.67;;
11681;SDS011;5897;42.640;23.310;2023-04-24T11:45:00;2.97;;;2.78;;
11681;SDS011;5897;42.640;23.310;2023-04-24T11:47:28;3.60;;;3.30;;
11681;SDS011;5897;42.640;23.310;2023-04-24T11:49:55;4.78;;;3.75;;
11681;SDS011;5897;42.640;23.310;2023-04-24T11:52:24;5.22;;;4.72;;
11681;SDS011;5897;42.640;23.310;2023-04-24T11:54:51;12.98;;;7.80;;
11681;SDS011;5897;42.640;23.310;2023-04-24T11:57:19;4.78;;;3.92;;
11681;SDS011;5897;42.640;23.310;2023-04-24T11:59:46;7.63;;;3.95;;
11681;SDS011;5897;42.640;23.310;2023-04-24T12:02:20;6.95;;;4.55;;
11681;SDS011;5897;42.640;23.310;2023-04-24T12:04:47;5.13;;;3.90;;
11681;SDS011;5897;42.640;23.310;2023-04-24T12:07:14;10.30;;;6.20;;
11681;SDS011;5897;42.640;23.310;2023-04-24T12:09:46;8.30;;;4.70;;
11681;SDS011;5897;42.640;23.310;2023-04-24T12:12:14;6.55;;;5.18;;
11681;SDS011;5897;42.640;23.310;2023-04-24T12:14:43;5.00;;;4.07;;
11681;SDS011;5897;42.640;23.310;2023-04-24T12:17:11;3.90;;;3.17;;
11681;SDS011;5897;42.640;23.310;2023-04-24T12:19:37;3.22;;;2.78;;
11681;SDS011;5897;42.640;23.310;2023-04-24T12:22:11;2.53;;;2.33;;
11681;SDS011;5897;42.640;23.310;2023-04-24T12:27:24;2.35;;;2.15;;
11681;SDS011;5897;42.640;23.310;2023-04-24T12:29:52;3.88;;;3.30;;
11681;SDS011;5897;42.640;23.310;2023-04-24T12:32:19;3.05;;;2.75;;
11681;SDS011;5897;42.640;23.310;2023-04-24T12:34:46;3.70;;;3.17;;
11681;SDS011;5897;42.640;23.310;2023-04-24T12:37:15;4.20;;;3.58;;
11681;SDS011;5897;42.640;23.310;2023-04-24T12:39:44;3.33;;;3.10;;
11681;SDS011;5897;42.640;23.310;2023-04-24T12:42:26;3.67;;;3.38;;
11681;SDS011;5897;42.640;23.310;2023-04-24T12:44:55;4.15;;;3.58;;
11681;SDS011;5897;42.640;23.310;2023-04-24T12:47:24;3.95;;;3.38;;
11681;SDS011;5897;42.640;23.310;2023-04-24T12:49:51;4.05;;;3.42;;
11681;SDS011;5897;42.640;23.310;2023-04-24T12:52:18;3.63;;;3.05;;
11681;SDS011;5897;42.640;23.310;2023-04-24T12:54:45;3.30;;;3.00;;
11681;SDS011;5897;42.640;23.310;2023-04-24T12:57:14;5.20;;;3.22;;
11681;SDS011;5897;42.640;23.310;2023-04-24T12:59:40;4.05;;;3.22;;
11681;SDS011;5897;42.640;23.310;2023-04-24T13:02:07;3.35;;;3.00;;
11681;SDS011;5897;42.640;23.310;2023-04-24T13:04:35;5.68;;;3.17;;
11681;SDS011;5897;42.640;23.310;2023-04-24T13:07:02;4.60;;;2.83;;
11681;SDS011;5897;42.640;23.310;2023-04-24T13:09:29;5.22;;;3.03;;
11681;SDS011;5897;42.640;23.310;2023-04-24T13:11:56;4.55;;;2.92;;
11681;SDS011;5897;42.640;23.310;2023-04-24T13:14:25;3.30;;;2.58;;
11681;SDS011;5897;42.640;23.310;2023-04-24T13:16:51;3.38;;;2.70;;
11681;SDS011;5897;42.640;23.310;2023-04-24T13:19:18;4.32;;;2.88;;
11681;SDS011;5897;42.640;23.310;2023-04-24T13:21:45;3.85;;;2.63;;
11681;SDS011;5897;42.640;23.310;2023-04-24T13:24:12;5.38;;;3.03;;
11681;SDS011;5897;42.640;23.310;2023-04-24T13:26:40;6.47;;;3.58;;
11681;SDS011;5897;42.640;23.310;2023-04-24T13:29:07;5.95;;;2.70;;
11681;SDS011;5897;42.640;23.310;2023-04-24T13:31:35;6.88;;;3.13;;
11681;SDS011;5897;42.640;23.310;2023-04-24T13:34:02;3.45;;;2.75;;
11681;SDS011;5897;42.640;23.310;2023-04-24T13:36:29;4.13;;;2.42;;
11681;SDS011;5897;42.640;23.310;2023-04-24T13:38:56;4.20;;;2.95;;
11681;SDS011;5897;42.640;23.310;2023-04-24T13:41:23;5.88;;;3.10;;
11681;SDS011;5897;42.640;23.310;2023-04-24T13:43:50;3.00;;;2.70;;
11681;SDS011;5897;42.640;23.310;2023-04-24T13:46:17;3.72;;;2.70;;
11681;SDS011;5897;42.640;23.310;2023-04-24T13:48:45;3.80;;;2.60;;
11681;SDS011;5897;42.640;23.310;2023-04-24T13:51:12;7.50;;;3.03;;
11681;SDS011;5897;42.640;23.310;2023-04-24T13:53:38;5.07;;;2.90;;
11681;SDS011;5897;42.640;23.310;2023-04-24T13:56:05;5.05;;;3.17;;
11681;SDS011;5897;42.640;23.310;2023-04-24T13:58:32;4.28;;;2.58;;
11681;SDS011;5897;42.640;23.310;2023-04-24T14:00:59;3.55;;;3.17;;
11681;SDS011;5897;42.640;23.310;2023-04-24T14:03:26;3.30;;;3.00;;
11681;SDS011;5897;42.640;23.310;2023-04-24T14:05:54;3.22;;;2.53;;
11681;SDS011;5897;42.640;23.310;2023-04-24T14:08:21;5.20;;;2.53;;
11681;SDS011;5897;42.640;23.310;2023-04-24T14:10:49;4.70;;;2.80;;
11681;SDS011;5897;42.640;23.310;2023-04-24T14:13:16;5.72;;;2.58;;
11681;SDS011;5897;42.640;23.310;2023-04-24T14:15:43;4.45;;;2.60;;
11681;SDS011;5897;42.640;23.310;2023-04-24T14:18:10;3.67;;;2.42;;
11681;SDS011;5897;42.640;23.310;2023-04-24T14:20:37;4.63;;;3.10;;
11681;SDS011;5897;42.640;23.310;2023-04-24T14:23:05;2.50;;;2.30;;
11681;SDS011;5897;42.640;23.310;2023-04-24T14:25:32;3.20;;;2.53;;
11681;SDS011;5897;42.640;23.310;2023-04-24T14:27:59;3.55;;;2.80;;
11681;SDS011;5897;42.640;23.310;2023-04-24T14:30:25;4.97;;;3.10;;
11681;SDS011;5897;42.640;23.310;2023-04-24T14:32:52;6.35;;;3.70;;
11681;SDS011;5897;42.640;23.310;2023-04-24T14:35:19;6.07;;;3.13;;
11681;SDS011;5897;42.640;23.310;2023-04-24T14:37:46;3.15;;;2.75;;
11681;SDS011;5897;42.640;23.310;2023-04-24T14:40:14;4.40;;;2.80;;
11681;SDS011;5897;42.640;23.310;2023-04-24T14:42:41;4.68;;;3.55;;
11681;SDS011;5897;42.640;23.310;2023-04-24T14:45:08;2.85;;;2.20;;
11681;SDS011;5897;42.640;23.310;2023-04-24T14:47:36;4.25;;;2.70;;
11681;SDS011;5897;42.640;23.310;2023-04-24T14:50:06;3.20;;;2.90;;
11681;SDS011;5897;42.640;23.310;2023-04-24T14:52:34;4.93;;;2.80;;
11681;SDS011;5897;42.640;23.310;2023-04-24T14:55:01;3.67;;;2.80;;